Maersk Missouri — WAHV — position and weather

sailwx.info

Track history (hours):
 
Tides and Currents Weather Stations Pressure Air Temp Water Temp Dewpoint Dewpoint Depression Visibility Wind Speed Wind Dir Waves Ship Positions

Maersk Missouri

Owner: MAERSK LINE, LIMITED, Norfolk, VA. More information available from US FCC via Universal Licensing System and Coast Guard Vessel Documentation Center.

Last reported at 2015-Apr-19 13:33 UTC. Time now 2015-Apr-19 14:07 UTC.
Position N 34°25' W 076°12'.

Type: Cargo ship. MMSI: 369708000.

Date/timePositionNaut miles runAvg speedWind from/ knotsBaromVisibWave heightAir tempDewpointWater temp
2015-Apr-19 13:33N 34°25' W 076°12'1312.7
2015-Apr-19 12:30N 34°35' W 076°00'917.7
2015-Apr-19 12:00N 34°42' W 075°54'3012.1 030 / 71016.527.0 0.521.019.022.9
2015-Apr-19 09:32N 35°01' W 075°26'209 5.8
2015-Apr-17 21:21N 38°26' W 074°41'1012.8
2015-Apr-17 20:33N 38°36' W 074°35'5213.0
2015-Apr-17 16:32N 39°23' W 074°06'1313.2
2015-Apr-17 15:33N 39°35' W 073°59'1313.0
2015-Apr-17 14:33N 39°47' W 073°53'1313.1
2015-Apr-17 13:33N 39°60' W 073°52'2110.6
2015-Apr-17 11:33N 40°21' W 073°49'7 7.4
2015-Apr-17 10:33N 40°28' W 073°52'1111.4
2015-Apr-17 09:34N 40°36' W 074°03'6 5.6
2015-Apr-17 08:33N 40°39' W 074°09'1 0.8
2015-Apr-17 07:32N 40°40' W 074°09'0 0.0
2015-Apr-17 06:32N 40°40' W 074°09'0 0.0
2015-Apr-17 05:33N 40°40' W 074°09'0 0.0
2015-Apr-17 04:28N 40°40' W 074°09'0 0.0
2015-Apr-17 03:31N 40°40' W 074°09'0 0.0
2015-Apr-17 02:32N 40°40' W 074°09'0 0.0
2015-Apr-17 01:33N 40°40' W 074°09'0 0.0
2015-Apr-17 00:30N 40°40' W 074°09'0 0.0
2015-Apr-16 23:31N 40°40' W 074°09'0 0.0
2015-Apr-16 22:32N 40°40' W 074°09'2 1.6
2015-Apr-16 21:34N 40°39' W 074°08'7 7.0
2015-Apr-16 20:33N 40°33' W 074°02'1111.4
2015-Apr-16 19:33N 40°27' W 073°49'9 9.1
2015-Apr-16 18:33N 40°22' W 073°40'1313.0
2015-Apr-16 17:33N 40°14' W 073°26'2019.6
2015-Apr-16 16:33N 40°08' W 073°01'2020.2
2015-Apr-16 15:34N 40°06' W 072°35'2020.1
2015-Apr-16 14:34N 40°04' W 072°09'2121.3
2015-Apr-16 13:33N 40°02' W 071°41'2222.2
2015-Apr-16 12:33N 40°03' W 071°12'1424.8
2015-Apr-16 12:00N 40°06' W 070°54'920.1 030 / 71031.627.0 0.510.0 4.0 8.2
2015-Apr-16 11:33N 40°03' W 070°43'2221.9
2015-Apr-16 10:33N 40°03' W 070°14'2322.3
2015-Apr-16 09:32N 40°03' W 069°45'2222.3
2015-Apr-16 08:33N 40°02' W 069°16'80420.8
2015-Apr-14 18:00N 41°54' W 051°42'17635.2 210 / 151032.227.0 7.0 5.0
2015-Apr-14 13:00N 42°24' W 047°48'21416.5 010 / 51036.827.0 1.5 9.5 3.8 6.5
2015-Apr-14 00:00N 42°54' W 043°00'56218.7 1029.827.0 1.5 8.0 5.816.0
2015-Apr-12 18:00N 46°12' W 030°42'25521.3 210 / 351018.427.0 4.513.5 9.014.4
2015-Apr-12 06:00N 48°06' W 025°06'39021.7 360 / 391021.427.0 2.0 8.5 3.010.4
2015-Apr-11 12:00N 49°12' W 015°24'46021.4 170 / 201021.227.0 2.011.0 5.011.3
2015-Apr-10 14:31N 50°11' W 003°39'1616.7
2015-Apr-10 13:33N 50°24' W 003°25'1515.1
2015-Apr-10 12:33N 50°25' W 003°01'2120.8
2015-Apr-10 11:33N 50°25' W 002°29'2019.6
2015-Apr-10 10:33N 50°27' W 001°58'2020.1
2015-Apr-10 09:33N 50°28' W 001°26'2121.0
2015-Apr-10 08:33N 50°29' W 000°53'2322.9
2015-Apr-10 07:34N 50°31' W 000°18'2323.4
2015-Apr-10 06:34N 50°36' E 000°18'1628.6
2015-Apr-10 06:00N 50°42' E 000°42'716.0 100 / 51020.5 1.1 0.5 9.5 9.0 8.8
2015-Apr-10 05:33N 50°44' E 000°52'2221.5
2015-Apr-10 04:33N 50°59' E 001°18'2019.8
2015-Apr-10 03:33N 51°12' E 001°42'2020.3
2015-Apr-10 02:33N 51°28' E 002°02'2222.2
2015-Apr-10 01:34N 51°45' E 002°25'2723.4
2015-Apr-10 00:24N 52°06' E 002°52'3023.7
2015-Apr-09 23:09N 52°29' E 003°23'1423.1
2015-Apr-09 22:33N 52°40' E 003°35'2322.5
2015-Apr-09 21:33N 52°57' E 003°60'2121.5
2015-Apr-09 20:33N 53°12' E 004°25'2020.0
2015-Apr-09 19:34N 53°29' E 004°44'2121.4
2015-Apr-09 18:34N 53°36' E 005°18'2322.9
2015-Apr-09 17:33N 53°44' E 005°55'2323.2
2015-Apr-09 16:33N 53°51' E 006°32'2322.8
2015-Apr-09 15:33N 53°56' E 007°10'1919.5
2015-Apr-09 14:34N 53°56' E 007°43'1616.2
2015-Apr-09 13:33N 53°49' E 008°08'  
Track history (hours):
 
Tides and Currents Weather Stations Pressure Air Temp Water Temp Dewpoint Dewpoint Depression Visibility Wind Speed Wind Dir Waves Ship Positions

Maersk Missouri

Owner: MAERSK LINE, LIMITED, Norfolk, VA. More information available from US FCC via Universal Licensing System and Coast Guard Vessel Documentation Center.

Last reported at 2015-Apr-19 13:33 UTC. Time now 2015-Apr-19 14:07 UTC.
Position N 34°25' W 076°12'.

Type: Cargo ship. MMSI: 369708000.

Date/timePositionNaut miles runAvg speedWind from/ knotsBaromVisibWave heightAir tempDewpointWater temp
2015-Apr-19 13:33N 34°25' W 076°12'1312.7
2015-Apr-19 12:30N 34°35' W 076°00'917.7
2015-Apr-19 12:00N 34°42' W 075°54'3012.1 030 / 71016.527.0 0.521.019.022.9
2015-Apr-19 09:32N 35°01' W 075°26'209 5.8
2015-Apr-17 21:21N 38°26' W 074°41'1012.8
2015-Apr-17 20:33N 38°36' W 074°35'5213.0
2015-Apr-17 16:32N 39°23' W 074°06'1313.2
2015-Apr-17 15:33N 39°35' W 073°59'1313.0
2015-Apr-17 14:33N 39°47' W 073°53'1313.1
2015-Apr-17 13:33N 39°60' W 073°52'2110.6
2015-Apr-17 11:33N 40°21' W 073°49'7 7.4
2015-Apr-17 10:33N 40°28' W 073°52'1111.4
2015-Apr-17 09:34N 40°36' W 074°03'6 5.6
2015-Apr-17 08:33N 40°39' W 074°09'1 0.8
2015-Apr-17 07:32N 40°40' W 074°09'0 0.0
2015-Apr-17 06:32N 40°40' W 074°09'0 0.0
2015-Apr-17 05:33N 40°40' W 074°09'0 0.0
2015-Apr-17 04:28N 40°40' W 074°09'0 0.0
2015-Apr-17 03:31N 40°40' W 074°09'0 0.0
2015-Apr-17 02:32N 40°40' W 074°09'0 0.0
2015-Apr-17 01:33N 40°40' W 074°09'0 0.0
2015-Apr-17 00:30N 40°40' W 074°09'0 0.0
2015-Apr-16 23:31N 40°40' W 074°09'0 0.0
2015-Apr-16 22:32N 40°40' W 074°09'2 1.6
2015-Apr-16 21:34N 40°39' W 074°08'7 7.0
2015-Apr-16 20:33N 40°33' W 074°02'1111.4
2015-Apr-16 19:33N 40°27' W 073°49'9 9.1
2015-Apr-16 18:33N 40°22' W 073°40'1313.0
2015-Apr-16 17:33N 40°14' W 073°26'2019.6
2015-Apr-16 16:33N 40°08' W 073°01'2020.2
2015-Apr-16 15:34N 40°06' W 072°35'2020.1
2015-Apr-16 14:34N 40°04' W 072°09'2121.3
2015-Apr-16 13:33N 40°02' W 071°41'2222.2
2015-Apr-16 12:33N 40°03' W 071°12'1424.8
2015-Apr-16 12:00N 40°06' W 070°54'920.1 030 / 71031.627.0 0.510.0 4.0 8.2
2015-Apr-16 11:33N 40°03' W 070°43'2221.9
2015-Apr-16 10:33N 40°03' W 070°14'2322.3
2015-Apr-16 09:32N 40°03' W 069°45'2222.3
2015-Apr-16 08:33N 40°02' W 069°16'80420.8
2015-Apr-14 18:00N 41°54' W 051°42'17635.2 210 / 151032.227.0 7.0 5.0
2015-Apr-14 13:00N 42°24' W 047°48'21416.5 010 / 51036.827.0 1.5 9.5 3.8 6.5
2015-Apr-14 00:00N 42°54' W 043°00'56218.7 1029.827.0 1.5 8.0 5.816.0
2015-Apr-12 18:00N 46°12' W 030°42'25521.3 210 / 351018.427.0 4.513.5 9.014.4
2015-Apr-12 06:00N 48°06' W 025°06'39021.7 360 / 391021.427.0 2.0 8.5 3.010.4
2015-Apr-11 12:00N 49°12' W 015°24'46021.4 170 / 201021.227.0 2.011.0 5.011.3
2015-Apr-10 14:31N 50°11' W 003°39'1616.7
2015-Apr-10 13:33N 50°24' W 003°25'1515.1
2015-Apr-10 12:33N 50°25' W 003°01'2120.8
2015-Apr-10 11:33N 50°25' W 002°29'2019.6
2015-Apr-10 10:33N 50°27' W 001°58'2020.1
2015-Apr-10 09:33N 50°28' W 001°26'2121.0
2015-Apr-10 08:33N 50°29' W 000°53'2322.9
2015-Apr-10 07:34N 50°31' W 000°18'2323.4
2015-Apr-10 06:34N 50°36' E 000°18'1628.6
2015-Apr-10 06:00N 50°42' E 000°42'716.0 100 / 51020.5 1.1 0.5 9.5 9.0 8.8
2015-Apr-10 05:33N 50°44' E 000°52'2221.5
2015-Apr-10 04:33N 50°59' E 001°18'2019.8
2015-Apr-10 03:33N 51°12' E 001°42'2020.3
2015-Apr-10 02:33N 51°28' E 002°02'2222.2
2015-Apr-10 01:34N 51°45' E 002°25'2723.4
2015-Apr-10 00:24N 52°06' E 002°52'3023.7
2015-Apr-09 23:09N 52°29' E 003°23'1423.1
2015-Apr-09 22:33N 52°40' E 003°35'2322.5
2015-Apr-09 21:33N 52°57' E 003°60'2121.5
2015-Apr-09 20:33N 53°12' E 004°25'2020.0
2015-Apr-09 19:34N 53°29' E 004°44'2121.4
2015-Apr-09 18:34N 53°36' E 005°18'2322.9
2015-Apr-09 17:33N 53°44' E 005°55'2323.2
2015-Apr-09 16:33N 53°51' E 006°32'2322.8
2015-Apr-09 15:33N 53°56' E 007°10'1919.5
2015-Apr-09 14:34N 53°56' E 007°43'1616.2
2015-Apr-09 13:33N 53°49' E 008°08'  

Dump ship's entire track history